sensor_id;sensor_type;location;lat;lon;timestamp;temperature;humidity
76299;DHT22;65105;42.334;23.550;2022-11-12T00:01:04;7.89;82.61
76299;DHT22;65105;42.334;23.550;2022-11-12T00:03:29;7.91;82.53
76299;DHT22;65105;42.334;23.550;2022-11-12T00:05:55;8.00;82.51
76299;DHT22;65105;42.334;23.550;2022-11-12T00:08:20;8.03;82.58
76299;DHT22;65105;42.334;23.550;2022-11-12T00:10:46;8.11;82.44
76299;DHT22;65105;42.334;23.550;2022-11-12T00:13:12;8.11;82.35
76299;DHT22;65105;42.334;23.550;2022-11-12T00:15:38;8.12;82.22
76299;DHT22;65105;42.334;23.550;2022-11-12T00:18:04;8.12;82.10
76299;DHT22;65105;42.334;23.550;2022-11-12T00:20:29;8.11;82.11
76299;DHT22;65105;42.334;23.550;2022-11-12T00:22:55;8.14;82.03
76299;DHT22;65105;42.334;23.550;2022-11-12T00:25:20;8.17;81.97
76299;DHT22;65105;42.334;23.550;2022-11-12T00:27:45;8.20;81.78
76299;DHT22;65105;42.334;23.550;2022-11-12T00:30:11;8.18;81.50
76299;DHT22;65105;42.334;23.550;2022-11-12T00:32:37;8.15;81.31
76299;DHT22;65105;42.334;23.550;2022-11-12T00:35:04;8.12;81.20
76299;DHT22;65105;42.334;23.550;2022-11-12T00:37:29;8.11;81.27
76299;DHT22;65105;42.334;23.550;2022-11-12T00:39:55;8.12;81.26
76299;DHT22;65105;42.334;23.550;2022-11-12T00:42:20;8.17;81.28
76299;DHT22;65105;42.334;23.550;2022-11-12T00:44:45;8.17;81.21
76299;DHT22;65105;42.334;23.550;2022-11-12T00:47:11;8.17;81.11
76299;DHT22;65105;42.334;23.550;2022-11-12T00:49:36;8.05;81.04
76299;DHT22;65105;42.334;23.550;2022-11-12T00:52:02;7.97;81.08
76299;DHT22;65105;42.334;23.550;2022-11-12T00:54:27;7.87;81.37
76299;DHT22;65105;42.334;23.550;2022-11-12T00:56:53;7.86;81.52
76299;DHT22;65105;42.334;23.550;2022-11-12T00:59:18;7.86;81.65
76299;DHT22;65105;42.334;23.550;2022-11-12T01:01:43;7.87;81.76
76299;DHT22;65105;42.334;23.550;2022-11-12T01:04:09;7.91;81.79
76299;DHT22;65105;42.334;23.550;2022-11-12T01:06:38;7.90;81.65
76299;DHT22;65105;42.334;23.550;2022-11-12T01:09:03;7.93;81.66
76299;DHT22;65105;42.334;23.550;2022-11-12T01:11:29;7.93;81.66
76299;DHT22;65105;42.334;23.550;2022-11-12T01:14:06;7.94;81.79
76299;DHT22;65105;42.334;23.550;2022-11-12T01:16:34;7.91;81.81
76299;DHT22;65105;42.334;23.550;2022-11-12T01:19:01;7.90;81.84
76299;DHT22;65105;42.334;23.550;2022-11-12T01:21:29;7.94;81.92
76299;DHT22;65105;42.334;23.550;2022-11-12T01:23:57;7.91;81.74
76299;DHT22;65105;42.334;23.550;2022-11-12T01:26:23;7.94;81.95
76299;DHT22;65105;42.334;23.550;2022-11-12T01:28:49;8.01;81.83
76299;DHT22;65105;42.334;23.550;2022-11-12T01:33:47;8.00;81.78
76299;DHT22;65105;42.334;23.550;2022-11-12T01:36:14;7.91;81.66
76299;DHT22;65105;42.334;23.550;2022-11-12T01:38:41;7.89;81.75
76299;DHT22;65105;42.334;23.550;2022-11-12T01:41:09;7.91;81.80
76299;DHT22;65105;42.334;23.550;2022-11-12T01:43:35;7.87;81.54
76299;DHT22;65105;42.334;23.550;2022-11-12T01:46:02;7.83;81.52
76299;DHT22;65105;42.334;23.550;2022-11-12T01:48:33;7.83;81.48
76299;DHT22;65105;42.334;23.550;2022-11-12T01:51:00;7.80;81.52
76299;DHT22;65105;42.334;23.550;2022-11-12T01:53:29;7.80;81.62
76299;DHT22;65105;42.334;23.550;2022-11-12T01:55:56;7.83;81.38
76299;DHT22;65105;42.334;23.550;2022-11-12T01:58:26;7.76;81.40
76299;DHT22;65105;42.334;23.550;2022-11-12T02:00:53;7.73;81.50
76299;DHT22;65105;42.334;23.550;2022-11-12T02:03:21;7.69;81.50
76299;DHT22;65105;42.334;23.550;2022-11-12T02:05:51;7.48;81.62
76299;DHT22;65105;42.334;23.550;2022-11-12T02:08:18;7.36;81.88
76299;DHT22;65105;42.334;23.550;2022-11-12T02:10:43;7.15;81.63
76299;DHT22;65105;42.334;23.550;2022-11-12T02:13:09;6.97;81.98
76299;DHT22;65105;42.334;23.550;2022-11-12T02:15:54;6.87;81.60
76299;DHT22;65105;42.334;23.550;2022-11-12T02:18:20;6.83;81.66
76299;DHT22;65105;42.334;23.550;2022-11-12T02:20:53;6.81;81.61
76299;DHT22;65105;42.334;23.550;2022-11-12T02:23:19;6.81;81.63
76299;DHT22;65105;42.334;23.550;2022-11-12T02:25:45;6.84;81.64
76299;DHT22;65105;42.334;23.550;2022-11-12T02:28:10;6.81;81.66
76299;DHT22;65105;42.334;23.550;2022-11-12T02:30:39;6.80;81.64
76299;DHT22;65105;42.334;23.550;2022-11-12T02:33:04;6.81;81.47
76299;DHT22;65105;42.334;23.550;2022-11-12T02:35:30;6.84;81.09
76299;DHT22;65105;42.334;23.550;2022-11-12T02:37:56;6.87;80.57
76299;DHT22;65105;42.334;23.550;2022-11-12T02:40:21;6.83;80.33
76299;DHT22;65105;42.334;23.550;2022-11-12T02:42:47;6.84;80.40
76299;DHT22;65105;42.334;23.550;2022-11-12T02:45:13;6.86;80.21
76299;DHT22;65105;42.334;23.550;2022-11-12T02:47:39;6.83;80.15
76299;DHT22;65105;42.334;23.550;2022-11-12T02:50:04;6.90;80.07
76299;DHT22;65105;42.334;23.550;2022-11-12T02:52:30;6.90;80.08
76299;DHT22;65105;42.334;23.550;2022-11-12T02:54:56;6.87;80.33
76299;DHT22;65105;42.334;23.550;2022-11-12T02:57:22;6.88;80.31
76299;DHT22;65105;42.334;23.550;2022-11-12T02:59:47;6.90;80.33
76299;DHT22;65105;42.334;23.550;2022-11-12T03:02:12;6.88;80.37
76299;DHT22;65105;42.334;23.550;2022-11-12T03:04:38;6.90;80.32
76299;DHT22;65105;42.334;23.550;2022-11-12T03:07:03;6.87;80.43
76299;DHT22;65105;42.334;23.550;2022-11-12T03:09:29;6.88;80.46
76299;DHT22;65105;42.334;23.550;2022-11-12T03:11:54;6.87;80.21
76299;DHT22;65105;42.334;23.550;2022-11-12T03:14:20;6.84;80.33
76299;DHT22;65105;42.334;23.550;2022-11-12T03:16:46;6.84;80.13
76299;DHT22;65105;42.334;23.550;2022-11-12T03:19:11;6.79;80.04
76299;DHT22;65105;42.334;23.550;2022-11-12T03:21:36;6.72;80.07
76299;DHT22;65105;42.334;23.550;2022-11-12T03:24:02;6.69;80.21
76299;DHT22;65105;42.334;23.550;2022-11-12T03:26:27;6.66;80.35
76299;DHT22;65105;42.334;23.550;2022-11-12T03:28:53;6.66;80.37
76299;DHT22;65105;42.334;23.550;2022-11-12T03:31:19;6.65;80.45
76299;DHT22;65105;42.334;23.550;2022-11-12T03:33:44;6.59;80.48
76299;DHT22;65105;42.334;23.550;2022-11-12T03:36:10;6.63;80.56
76299;DHT22;65105;42.334;23.550;2022-11-12T03:38:36;6.65;80.72
76299;DHT22;65105;42.334;23.550;2022-11-12T03:41:01;6.66;80.57
76299;DHT22;65105;42.334;23.550;2022-11-12T03:43:27;6.65;80.56
76299;DHT22;65105;42.334;23.550;2022-11-12T03:45:52;6.69;80.48
76299;DHT22;65105;42.334;23.550;2022-11-12T03:48:18;6.68;80.35
76299;DHT22;65105;42.334;23.550;2022-11-12T03:50:43;6.66;80.31
76299;DHT22;65105;42.334;23.550;2022-11-12T03:53:08;6.63;80.32
76299;DHT22;65105;42.334;23.550;2022-11-12T03:55:34;6.65;80.34
76299;DHT22;65105;42.334;23.550;2022-11-12T03:57:59;6.65;80.29
76299;DHT22;65105;42.334;23.550;2022-11-12T04:00:26;6.65;80.27
76299;DHT22;65105;42.334;23.550;2022-11-12T04:02:52;6.62;80.15
76299;DHT22;65105;42.334;23.550;2022-11-12T04:05:18;6.54;79.98
76299;DHT22;65105;42.334;23.550;2022-11-12T04:08:20;6.38;79.96
76299;DHT22;65105;42.334;23.550;2022-11-12T04:11:12;6.24;80.21
76299;DHT22;65105;42.334;23.550;2022-11-12T04:13:39;6.14;80.33
76299;DHT22;65105;42.334;23.550;2022-11-12T04:16:07;6.05;80.44
76299;DHT22;65105;42.334;23.550;2022-11-12T04:18:54;5.93;80.54
76299;DHT22;65105;42.334;23.550;2022-11-12T04:21:39;5.84;80.61
76299;DHT22;65105;42.334;23.550;2022-11-12T04:24:24;5.74;80.80
76299;DHT22;65105;42.334;23.550;2022-11-12T04:27:12;5.67;81.15
76299;DHT22;65105;42.334;23.550;2022-11-12T04:29:38;5.70;81.34
76299;DHT22;65105;42.334;23.550;2022-11-12T04:32:22;5.71;81.57
76299;DHT22;65105;42.334;23.550;2022-11-12T04:34:47;5.74;81.61
76299;DHT22;65105;42.334;23.550;2022-11-12T04:37:13;5.71;81.58
76299;DHT22;65105;42.334;23.550;2022-11-12T04:39:38;5.67;81.64
76299;DHT22;65105;42.334;23.550;2022-11-12T04:42:04;5.63;81.75
76299;DHT22;65105;42.334;23.550;2022-11-12T04:44:48;5.63;81.83
76299;DHT22;65105;42.334;23.550;2022-11-12T04:47:43;5.60;81.93
76299;DHT22;65105;42.334;23.550;2022-11-12T04:50:16;5.67;82.10
76299;DHT22;65105;42.334;23.550;2022-11-12T04:52:43;5.73;82.25
76299;DHT22;65105;42.334;23.550;2022-11-12T04:55:09;5.77;82.26
76299;DHT22;65105;42.334;23.550;2022-11-12T04:57:35;5.83;82.29
76299;DHT22;65105;42.334;23.550;2022-11-12T05:00:02;5.87;82.37
76299;DHT22;65105;42.334;23.550;2022-11-12T05:02:27;5.91;82.35
76299;DHT22;65105;42.334;23.550;2022-11-12T05:04:53;5.94;82.33
76299;DHT22;65105;42.334;23.550;2022-11-12T05:07:18;6.00;82.29
76299;DHT22;65105;42.334;23.550;2022-11-12T05:09:44;6.03;82.23
76299;DHT22;65105;42.334;23.550;2022-11-12T05:12:09;6.07;82.17
76299;DHT22;65105;42.334;23.550;2022-11-12T05:14:35;6.10;82.10
76299;DHT22;65105;42.334;23.550;2022-11-12T05:17:00;6.15;81.99
76299;DHT22;65105;42.334;23.550;2022-11-12T05:19:26;6.20;81.94
76299;DHT22;65105;42.334;23.550;2022-11-12T05:21:51;6.21;81.80
76299;DHT22;65105;42.334;23.550;2022-11-12T05:24:34;6.22;81.68
76299;DHT22;65105;42.334;23.550;2022-11-12T05:27:00;6.20;81.67
76299;DHT22;65105;42.334;23.550;2022-11-12T05:29:26;6.22;81.58
76299;DHT22;65105;42.334;23.550;2022-11-12T05:31:52;6.17;81.37
76299;DHT22;65105;42.334;23.550;2022-11-12T05:34:17;6.18;81.40
76299;DHT22;65105;42.334;23.550;2022-11-12T05:36:42;6.21;81.28
76299;DHT22;65105;42.334;23.550;2022-11-12T05:39:08;6.20;81.23
76299;DHT22;65105;42.334;23.550;2022-11-12T05:41:33;6.14;81.27
76299;DHT22;65105;42.334;23.550;2022-11-12T05:43:59;6.11;81.36
76299;DHT22;65105;42.334;23.550;2022-11-12T05:46:24;6.14;81.47
76299;DHT22;65105;42.334;23.550;2022-11-12T05:48:50;6.18;81.52
76299;DHT22;65105;42.334;23.550;2022-11-12T05:51:15;6.21;81.43
76299;DHT22;65105;42.334;23.550;2022-11-12T05:53:41;6.24;81.42
76299;DHT22;65105;42.334;23.550;2022-11-12T05:56:08;6.28;81.36
76299;DHT22;65105;42.334;23.550;2022-11-12T05:58:35;6.33;81.22
76299;DHT22;65105;42.334;23.550;2022-11-12T06:01:01;6.36;81.11
76299;DHT22;65105;42.334;23.550;2022-11-12T06:03:26;6.45;80.94
76299;DHT22;65105;42.334;23.550;2022-11-12T06:05:52;6.46;80.69
76299;DHT22;65105;42.334;23.550;2022-11-12T06:08:18;6.49;80.41
76299;DHT22;65105;42.334;23.550;2022-11-12T06:10:48;6.46;80.46
76299;DHT22;65105;42.334;23.550;2022-11-12T06:13:14;6.49;80.33
76299;DHT22;65105;42.334;23.550;2022-11-12T06:15:40;6.52;80.02
76299;DHT22;65105;42.334;23.550;2022-11-12T06:18:05;6.59;79.76
76299;DHT22;65105;42.334;23.550;2022-11-12T06:20:31;6.66;79.45
76299;DHT22;65105;42.334;23.550;2022-11-12T06:22:56;6.72;78.83
76299;DHT22;65105;42.334;23.550;2022-11-12T06:25:22;6.79;78.51
76299;DHT22;65105;42.334;23.550;2022-11-12T06:27:47;6.87;78.29
76299;DHT22;65105;42.334;23.550;2022-11-12T06:30:13;6.97;78.15
76299;DHT22;65105;42.334;23.550;2022-11-12T06:32:39;7.14;77.78
76299;DHT22;65105;42.334;23.550;2022-11-12T06:35:05;7.28;77.45
76299;DHT22;65105;42.334;23.550;2022-11-12T06:37:30;7.48;76.84
76299;DHT22;65105;42.334;23.550;2022-11-12T06:39:56;7.49;76.20
76299;DHT22;65105;42.334;23.550;2022-11-12T06:42:21;7.51;76.13
76299;DHT22;65105;42.334;23.550;2022-11-12T06:44:47;7.55;75.91
76299;DHT22;65105;42.334;23.550;2022-11-12T06:47:12;7.55;75.61
76299;DHT22;65105;42.334;23.550;2022-11-12T06:49:38;7.56;75.51
76299;DHT22;65105;42.334;23.550;2022-11-12T06:52:06;7.58;75.36
76299;DHT22;65105;42.334;23.550;2022-11-12T06:54:31;7.58;75.26
76299;DHT22;65105;42.334;23.550;2022-11-12T06:56:57;7.61;75.10
76299;DHT22;65105;42.334;23.550;2022-11-12T06:59:22;7.67;74.92
76299;DHT22;65105;42.334;23.550;2022-11-12T07:01:48;7.84;74.79
76299;DHT22;65105;42.334;23.550;2022-11-12T07:04:13;8.04;74.56
76299;DHT22;65105;42.334;23.550;2022-11-12T07:06:39;8.21;74.31
76299;DHT22;65105;42.334;23.550;2022-11-12T07:09:04;8.24;73.88
76299;DHT22;65105;42.334;23.550;2022-11-12T07:11:30;8.30;73.71
76299;DHT22;65105;42.334;23.550;2022-11-12T07:13:56;8.32;73.35
76299;DHT22;65105;42.334;23.550;2022-11-12T07:16:21;8.37;73.15
76299;DHT22;65105;42.334;23.550;2022-11-12T07:18:47;8.39;72.72
76299;DHT22;65105;42.334;23.550;2022-11-12T07:21:18;8.44;72.23
76299;DHT22;65105;42.334;23.550;2022-11-12T07:23:44;8.46;71.66
76299;DHT22;65105;42.334;23.550;2022-11-12T07:26:19;8.53;71.21
76299;DHT22;65105;42.334;23.550;2022-11-12T07:28:46;8.58;70.97
76299;DHT22;65105;42.334;23.550;2022-11-12T07:31:13;8.62;71.01
76299;DHT22;65105;42.334;23.550;2022-11-12T07:33:39;8.73;70.70
76299;DHT22;65105;42.334;23.550;2022-11-12T07:36:09;8.79;70.54
76299;DHT22;65105;42.334;23.550;2022-11-12T07:38:37;8.83;70.36
76299;DHT22;65105;42.334;23.550;2022-11-12T07:41:11;8.91;70.26
76299;DHT22;65105;42.334;23.550;2022-11-12T07:43:37;8.94;70.13
76299;DHT22;65105;42.334;23.550;2022-11-12T07:46:06;8.94;70.10
76299;DHT22;65105;42.334;23.550;2022-11-12T07:48:32;8.96;69.97
76299;DHT22;65105;42.334;23.550;2022-11-12T07:51:04;8.93;69.55
76299;DHT22;65105;42.334;23.550;2022-11-12T07:53:30;8.94;69.35
76299;DHT22;65105;42.334;23.550;2022-11-12T07:55:57;8.96;69.31
76299;DHT22;65105;42.334;23.550;2022-11-12T07:58:23;8.94;68.76
76299;DHT22;65105;42.334;23.550;2022-11-12T08:00:50;8.89;68.82
76299;DHT22;65105;42.334;23.550;2022-11-12T08:03:16;8.89;68.81
76299;DHT22;65105;42.334;23.550;2022-11-12T08:05:41;8.86;67.57
76299;DHT22;65105;42.334;23.550;2022-11-12T08:08:07;8.77;67.05
76299;DHT22;65105;42.334;23.550;2022-11-12T08:10:32;8.76;66.82
76299;DHT22;65105;42.334;23.550;2022-11-12T08:12:58;8.77;66.97
76299;DHT22;65105;42.334;23.550;2022-11-12T08:15:23;8.84;67.17
76299;DHT22;65105;42.334;23.550;2022-11-12T08:17:49;8.81;67.22
76299;DHT22;65105;42.334;23.550;2022-11-12T08:20:15;8.84;67.42
76299;DHT22;65105;42.334;23.550;2022-11-12T08:22:40;8.97;67.55
76299;DHT22;65105;42.334;23.550;2022-11-12T08:25:06;9.07;67.59
76299;DHT22;65105;42.334;23.550;2022-11-12T08:27:32;9.10;67.32
76299;DHT22;65105;42.334;23.550;2022-11-12T08:29:57;9.17;67.27
76299;DHT22;65105;42.334;23.550;2022-11-12T08:32:23;9.20;67.03
76299;DHT22;65105;42.334;23.550;2022-11-12T08:34:48;9.24;67.01
76299;DHT22;65105;42.334;23.550;2022-11-12T08:37:14;9.31;67.07
76299;DHT22;65105;42.334;23.550;2022-11-12T08:39:39;9.34;66.64
76299;DHT22;65105;42.334;23.550;2022-11-12T08:42:05;9.49;66.40
76299;DHT22;65105;42.334;23.550;2022-11-12T08:44:30;9.73;65.89
76299;DHT22;65105;42.334;23.550;2022-11-12T08:46:56;9.75;65.69
76299;DHT22;65105;42.334;23.550;2022-11-12T08:49:21;9.63;65.54
76299;DHT22;65105;42.334;23.550;2022-11-12T08:51:47;9.52;66.00
76299;DHT22;65105;42.334;23.550;2022-11-12T08:54:12;9.38;66.36
76299;DHT22;65105;42.334;23.550;2022-11-12T08:56:37;9.21;66.85
76299;DHT22;65105;42.334;23.550;2022-11-12T08:59:04;9.14;67.17
76299;DHT22;65105;42.334;23.550;2022-11-12T09:01:29;9.30;67.23
76299;DHT22;65105;42.334;23.550;2022-11-12T09:03:55;9.69;66.80
76299;DHT22;65105;42.334;23.550;2022-11-12T09:06:20;10.07;66.26
76299;DHT22;65105;42.334;23.550;2022-11-12T09:08:45;10.66;64.70
76299;DHT22;65105;42.334;23.550;2022-11-12T09:11:11;11.13;63.03
76299;DHT22;65105;42.334;23.550;2022-11-12T09:13:36;11.47;62.47
76299;DHT22;65105;42.334;23.550;2022-11-12T09:16:03;11.50;61.50
76299;DHT22;65105;42.334;23.550;2022-11-12T09:18:30;11.30;61.00
76299;DHT22;65105;42.334;23.550;2022-11-12T09:21:00;11.26;61.21
76299;DHT22;65105;42.334;23.550;2022-11-12T09:23:26;11.27;61.06
76299;DHT22;65105;42.334;23.550;2022-11-12T09:25:53;11.10;61.09
76299;DHT22;65105;42.334;23.550;2022-11-12T09:28:19;11.19;60.97
76299;DHT22;65105;42.334;23.550;2022-11-12T09:30:46;11.23;61.03
76299;DHT22;65105;42.334;23.550;2022-11-12T09:33:13;11.03;61.18
76299;DHT22;65105;42.334;23.550;2022-11-12T09:35:39;10.76;61.88
76299;DHT22;65105;42.334;23.550;2022-11-12T09:38:04;10.58;62.63
76299;DHT22;65105;42.334;23.550;2022-11-12T09:40:54;10.55;62.71
76299;DHT22;65105;42.334;23.550;2022-11-12T09:43:34;10.78;62.77
76299;DHT22;65105;42.334;23.550;2022-11-12T09:49:13;12.34;58.81
76299;DHT22;65105;42.334;23.550;2022-11-12T09:51:51;13.30;56.31
76299;DHT22;65105;42.334;23.550;2022-11-12T09:54:31;13.92;54.98
76299;DHT22;65105;42.334;23.550;2022-11-12T09:56:58;13.94;53.86
76299;DHT22;65105;42.334;23.550;2022-11-12T09:59:28;13.91;54.26
76299;DHT22;65105;42.334;23.550;2022-11-12T10:09:31;14.04;53.32
76299;DHT22;65105;42.334;23.550;2022-11-12T10:12:11;13.40;54.84
76299;DHT22;65105;42.334;23.550;2022-11-12T10:21:31;11.54;60.45
76299;DHT22;65105;42.334;23.550;2022-11-12T10:23:59;11.31;61.54
76299;DHT22;65105;42.334;23.550;2022-11-12T10:28:41;11.43;64.09
76299;DHT22;65105;42.334;23.550;2022-11-12T10:31:13;11.43;63.29
76299;DHT22;65105;42.334;23.550;2022-11-12T10:33:39;11.34;63.65
76299;DHT22;65105;42.334;23.550;2022-11-12T10:36:20;11.23;63.68
76299;DHT22;65105;42.334;23.550;2022-11-12T10:38:51;11.12;64.24
76299;DHT22;65105;42.334;23.550;2022-11-12T10:41:24;11.19;63.74
76299;DHT22;65105;42.334;23.550;2022-11-12T10:43:58;11.19;63.54
76299;DHT22;65105;42.334;23.550;2022-11-12T10:46:26;11.10;63.01
76299;DHT22;65105;42.334;23.550;2022-11-12T10:48:58;11.40;62.45
76299;DHT22;65105;42.334;23.550;2022-11-12T10:51:28;11.51;62.01
76299;DHT22;65105;42.334;23.550;2022-11-12T10:53:54;11.82;61.03
76299;DHT22;65105;42.334;23.550;2022-11-12T10:56:29;11.82;61.11
76299;DHT22;65105;42.334;23.550;2022-11-12T10:59:19;11.98;60.62
76299;DHT22;65105;42.334;23.550;2022-11-12T11:01:45;11.82;61.05
76299;DHT22;65105;42.334;23.550;2022-11-12T11:06:57;11.55;61.87
76299;DHT22;65105;42.334;23.550;2022-11-12T11:09:24;11.41;62.19
76299;DHT22;65105;42.334;23.550;2022-11-12T11:11:51;11.48;61.76
76299;DHT22;65105;42.334;23.550;2022-11-12T11:16:57;11.14;62.19
76299;DHT22;65105;42.334;23.550;2022-11-12T11:19:34;11.16;62.66
76299;DHT22;65105;42.334;23.550;2022-11-12T11:22:27;11.41;61.51
76299;DHT22;65105;42.334;23.550;2022-11-12T11:25:11;11.62;60.92
76299;DHT22;65105;42.334;23.550;2022-11-12T11:30:29;11.89;59.75
76299;DHT22;65105;42.334;23.550;2022-11-12T11:39:38;11.95;60.47
76299;DHT22;65105;42.334;23.550;2022-11-12T11:42:19;11.79;60.89
76299;DHT22;65105;42.334;23.550;2022-11-12T11:47:41;11.43;61.14
76299;DHT22;65105;42.334;23.550;2022-11-12T11:50:21;11.00;61.71
76299;DHT22;65105;42.334;23.550;2022-11-12T12:04:33;9.97;64.80
76299;DHT22;65105;42.334;23.550;2022-11-12T12:07:24;9.87;64.60
76299;DHT22;65105;42.334;23.550;2022-11-12T12:10:02;9.85;64.68
76299;DHT22;65105;42.334;23.550;2022-11-12T12:15:41;9.76;65.19
76299;DHT22;65105;42.334;23.550;2022-11-12T12:21:18;9.56;67.11
76299;DHT22;65105;42.334;23.550;2022-11-12T12:23:55;9.51;67.92
76299;DHT22;65105;42.334;23.550;2022-11-12T12:26:30;9.39;68.17
76299;DHT22;65105;42.334;23.550;2022-11-12T12:38:17;8.69;69.62
76299;DHT22;65105;42.334;23.550;2022-11-12T12:43:39;8.31;71.47
76299;DHT22;65105;42.334;23.550;2022-11-12T12:46:09;8.18;71.82
76299;DHT22;65105;42.334;23.550;2022-11-12T12:48:39;8.17;72.12
76299;DHT22;65105;42.334;23.550;2022-11-12T12:51:06;8.14;72.23
76299;DHT22;65105;42.334;23.550;2022-11-12T12:53:34;8.08;72.68
76299;DHT22;65105;42.334;23.550;2022-11-12T12:58:46;7.98;73.66
76299;DHT22;65105;42.334;23.550;2022-11-12T13:03:59;7.87;73.55
76299;DHT22;65105;42.334;23.550;2022-11-12T13:43:20;7.86;74.25
76299;DHT22;65105;42.334;23.550;2022-11-12T13:45:52;7.89;74.06
76299;DHT22;65105;42.334;23.550;2022-11-12T13:48:26;7.84;74.30
76299;DHT22;65105;42.334;23.550;2022-11-12T13:50:55;7.83;74.60
76299;DHT22;65105;42.334;23.550;2022-11-12T13:53:25;7.83;74.98
76299;DHT22;65105;42.334;23.550;2022-11-12T13:55:52;7.80;75.19
76299;DHT22;65105;42.334;23.550;2022-11-12T14:00:56;7.86;74.68
76299;DHT22;65105;42.334;23.550;2022-11-12T14:03:23;7.84;74.87
76299;DHT22;65105;42.334;23.550;2022-11-12T14:05:50;7.82;74.89
76299;DHT22;65105;42.334;23.550;2022-11-12T14:08:31;7.79;74.69
76299;DHT22;65105;42.334;23.550;2022-11-12T14:21:08;7.56;75.20
76299;DHT22;65105;42.334;23.550;2022-11-12T14:23:18;7.55;75.57
76299;DHT22;65105;42.334;23.550;2022-11-12T14:25:53;7.62;75.53
76299;DHT22;65105;42.334;23.550;2022-11-12T14:28:35;7.65;75.10
76299;DHT22;65105;42.334;23.550;2022-11-12T14:31:02;7.58;75.43
76299;DHT22;65105;42.334;23.550;2022-11-12T14:33:30;7.56;75.38
76299;DHT22;65105;42.334;23.550;2022-11-12T14:36:04;7.53;75.51
76299;DHT22;65105;42.334;23.550;2022-11-12T14:38:31;7.49;75.55
76299;DHT22;65105;42.334;23.550;2022-11-12T14:41:00;7.49;75.64
76299;DHT22;65105;42.334;23.550;2022-11-12T14:45:59;7.38;75.97
76299;DHT22;65105;42.334;23.550;2022-11-12T14:48:25;7.28;76.18
76299;DHT22;65105;42.334;23.550;2022-11-12T14:50:56;7.27;76.37
76299;DHT22;65105;42.334;23.550;2022-11-12T14:53:38;7.28;76.37
76299;DHT22;65105;42.334;23.550;2022-11-12T14:56:06;7.21;76.54
76299;DHT22;65105;42.334;23.550;2022-11-12T14:58:32;7.24;76.63
76299;DHT22;65105;42.334;23.550;2022-11-12T15:03:50;7.14;76.97
76299;DHT22;65105;42.334;23.550;2022-11-12T15:06:27;7.15;77.23
76299;DHT22;65105;42.334;23.550;2022-11-12T15:08:57;7.18;77.27
76299;DHT22;65105;42.334;23.550;2022-11-12T15:11:35;7.09;77.42
76299;DHT22;65105;42.334;23.550;2022-11-12T15:14:11;7.09;77.60
76299;DHT22;65105;42.334;23.550;2022-11-12T15:16:41;7.09;77.43
76299;DHT22;65105;42.334;23.550;2022-11-12T15:21:54;7.15;77.60
76299;DHT22;65105;42.334;23.550;2022-11-12T15:24:33;7.17;77.71
76299;DHT22;65105;42.334;23.550;2022-11-12T15:27:02;7.18;77.70
76299;DHT22;65105;42.334;23.550;2022-11-12T15:29:46;7.21;77.69
76299;DHT22;65105;42.334;23.550;2022-11-12T15:39:45;7.25;77.87
76299;DHT22;65105;42.334;23.550;2022-11-12T15:44:57;7.25;78.05
76299;DHT22;65105;42.334;23.550;2022-11-12T15:47:23;7.18;78.09
76299;DHT22;65105;42.334;23.550;2022-11-12T15:49:56;7.25;78.07
76299;DHT22;65105;42.334;23.550;2022-11-12T15:52:23;7.22;78.11
76299;DHT22;65105;42.334;23.550;2022-11-12T15:54:49;7.19;78.10
76299;DHT22;65105;42.334;23.550;2022-11-12T15:57:21;7.22;78.16
76299;DHT22;65105;42.334;23.550;2022-11-12T15:59:58;7.24;78.23
76299;DHT22;65105;42.334;23.550;2022-11-12T16:02:24;7.24;77.98
76299;DHT22;65105;42.334;23.550;2022-11-12T16:04:50;7.09;78.54
76299;DHT22;65105;42.334;23.550;2022-11-12T16:07:15;7.12;78.88
76299;DHT22;65105;42.334;23.550;2022-11-12T16:09:41;7.18;78.87
76299;DHT22;65105;42.334;23.550;2022-11-12T16:12:13;7.22;78.85
76299;DHT22;65105;42.334;23.550;2022-11-12T16:14:39;7.21;78.45
76299;DHT22;65105;42.334;23.550;2022-11-12T16:17:09;7.14;78.53
76299;DHT22;65105;42.334;23.550;2022-11-12T16:19:36;7.04;78.88
76299;DHT22;65105;42.334;23.550;2022-11-12T16:22:02;7.01;79.26
76299;DHT22;65105;42.334;23.550;2022-11-12T16:24:28;7.04;79.43
76299;DHT22;65105;42.334;23.550;2022-11-12T16:26:53;7.01;79.07
76299;DHT22;65105;42.334;23.550;2022-11-12T16:29:19;6.96;79.03
76299;DHT22;65105;42.334;23.550;2022-11-12T16:31:44;6.97;79.05
76299;DHT22;65105;42.334;23.550;2022-11-12T16:34:10;6.93;79.15
76299;DHT22;65105;42.334;23.550;2022-11-12T16:36:37;6.96;79.20
76299;DHT22;65105;42.334;23.550;2022-11-12T16:39:03;6.97;79.26
76299;DHT22;65105;42.334;23.550;2022-11-12T16:41:28;7.00;79.22
76299;DHT22;65105;42.334;23.550;2022-11-12T16:43:54;7.03;79.13
76299;DHT22;65105;42.334;23.550;2022-11-12T16:46:38;6.98;79.29
76299;DHT22;65105;42.334;23.550;2022-11-12T16:49:14;6.91;79.38
76299;DHT22;65105;42.334;23.550;2022-11-12T16:51:40;6.96;79.43
76299;DHT22;65105;42.334;23.550;2022-11-12T16:54:06;7.00;79.28
76299;DHT22;65105;42.334;23.550;2022-11-12T16:56:32;6.88;79.48
76299;DHT22;65105;42.334;23.550;2022-11-12T16:58:58;6.84;79.82
76299;DHT22;65105;42.334;23.550;2022-11-12T17:01:25;6.87;79.82
76299;DHT22;65105;42.334;23.550;2022-11-12T17:03:52;6.81;79.86
76299;DHT22;65105;42.334;23.550;2022-11-12T17:06:19;6.79;80.19
76299;DHT22;65105;42.334;23.550;2022-11-12T17:08:44;6.81;80.31
76299;DHT22;65105;42.334;23.550;2022-11-12T17:11:13;6.80;80.44
76299;DHT22;65105;42.334;23.550;2022-11-12T17:13:38;6.81;80.58
76299;DHT22;65105;42.334;23.550;2022-11-12T17:16:05;6.80;80.68
76299;DHT22;65105;42.334;23.550;2022-11-12T17:18:31;6.79;80.73
76299;DHT22;65105;42.334;23.550;2022-11-12T17:21:15;6.84;80.79
76299;DHT22;65105;42.334;23.550;2022-11-12T17:23:41;6.88;80.89
76299;DHT22;65105;42.334;23.550;2022-11-12T17:26:14;6.86;80.68
76299;DHT22;65105;42.334;23.550;2022-11-12T17:28:40;6.84;80.73
76299;DHT22;65105;42.334;23.550;2022-11-12T17:31:10;6.84;80.93
76299;DHT22;65105;42.334;23.550;2022-11-12T17:33:38;6.76;81.10
76299;DHT22;65105;42.334;23.550;2022-11-12T17:36:05;6.76;81.15
76299;DHT22;65105;42.334;23.550;2022-11-12T17:38:31;6.81;81.18
76299;DHT22;65105;42.334;23.550;2022-11-12T17:40:57;6.79;81.15
76299;DHT22;65105;42.334;23.550;2022-11-12T17:43:22;6.86;81.15
76299;DHT22;65105;42.334;23.550;2022-11-12T17:45:49;6.88;81.19
76299;DHT22;65105;42.334;23.550;2022-11-12T17:48:15;6.90;81.05
76299;DHT22;65105;42.334;23.550;2022-11-12T17:50:40;6.96;80.85
76299;DHT22;65105;42.334;23.550;2022-11-12T17:53:06;6.96;80.68
76299;DHT22;65105;42.334;23.550;2022-11-12T17:55:32;6.93;80.51
76299;DHT22;65105;42.334;23.550;2022-11-12T17:57:57;6.84;80.72
76299;DHT22;65105;42.334;23.550;2022-11-12T18:00:23;6.73;80.93